createdAt,value
2018-09-15T00:00:54.913Z,75.32
2018-09-15T00:03:23.695Z,75.64
2018-09-15T00:05:52.293Z,75.29
2018-09-15T00:08:20.818Z,74.95
2018-09-15T00:10:49.532Z,74.98
2018-09-15T00:13:18.900Z,74.84
2018-09-15T00:15:47.391Z,74.03
2018-09-15T00:18:17.480Z,74.33
2018-09-15T00:20:45.968Z,73.90
2018-09-15T00:23:14.509Z,73.84
2018-09-15T00:25:43.302Z,73.81
2018-09-15T00:28:12.535Z,73.86
2018-09-15T00:30:41.499Z,74.73
2018-09-15T00:33:09.982Z,74.00
2018-09-15T00:35:38.486Z,73.91
2018-09-15T00:38:07.055Z,73.82
2018-09-15T00:40:35.538Z,73.98
2018-09-15T00:43:04.046Z,74.42
2018-09-15T00:45:32.525Z,74.57
2018-09-15T00:48:01.426Z,74.58
2018-09-15T00:50:29.940Z,74.41
2018-09-15T00:52:58.419Z,74.73
2018-09-15T00:55:26.953Z,75.17
2018-09-15T01:00:46.219Z,74.86
2018-09-15T01:03:14.697Z,75.07
2018-09-15T01:05:43.506Z,75.20
2018-09-15T01:08:12.193Z,75.54
2018-09-15T01:10:40.649Z,75.48
2018-09-15T01:13:09.171Z,75.60
2018-09-15T01:15:37.645Z,75.28
2018-09-15T01:18:06.137Z,75.77
2018-09-15T01:20:34.757Z,76.18
2018-09-15T01:23:03.242Z,76.03
2018-09-15T01:28:13.591Z,75.69
2018-09-15T01:30:42.087Z,75.95
2018-09-15T01:33:10.629Z,76.04
2018-09-15T01:35:39.154Z,76.32
2018-09-15T01:38:07.674Z,76.24
2018-09-15T01:40:36.270Z,77.31
2018-09-15T01:43:04.811Z,77.59
2018-09-15T01:45:33.382Z,77.47
2018-09-15T01:48:01.887Z,78.40
2018-09-15T01:50:30.358Z,78.76
2018-09-15T01:52:58.889Z,77.95
2018-09-15T01:55:27.472Z,78.91
2018-09-15T01:57:55.950Z,78.99
2018-09-15T02:00:24.494Z,79.39
2018-09-15T02:02:53.041Z,80.00
2018-09-15T02:05:21.591Z,80.20
2018-09-15T02:07:50.066Z,80.99
2018-09-15T02:10:18.553Z,81.48
2018-09-15T02:12:47.035Z,80.82
2018-09-15T02:15:15.897Z,81.53
2018-09-15T02:17:44.383Z,81.32
2018-09-15T02:20:12.889Z,81.59
2018-09-15T02:22:41.517Z,81.55
2018-09-15T02:25:10.066Z,81.94
2018-09-15T02:27:38.573Z,82.06
2018-09-15T02:30:07.065Z,82.02
2018-09-15T02:32:35.604Z,82.91
2018-09-15T02:35:04.107Z,82.81
2018-09-15T02:37:32.642Z,81.99
2018-09-15T02:40:01.170Z,81.87
2018-09-15T02:42:29.646Z,82.40
2018-09-15T02:44:58.144Z,81.56
2018-09-15T02:47:26.652Z,81.76
2018-09-15T02:49:55.145Z,81.13
2018-09-15T02:52:23.647Z,80.53
2018-09-15T02:54:52.167Z,80.79
2018-09-15T02:57:20.654Z,81.05
2018-09-15T02:59:49.165Z,80.23
2018-09-15T03:02:17.637Z,79.94
2018-09-15T03:04:46.159Z,79.64
2018-09-15T03:07:14.670Z,80.09
2018-09-15T03:09:43.173Z,80.12
2018-09-15T03:12:11.772Z,79.88
2018-09-15T03:14:40.277Z,80.04
2018-09-15T03:17:08.755Z,80.47
2018-09-15T03:19:37.366Z,79.91
2018-09-15T03:22:05.897Z,79.57
2018-09-15T03:24:34.353Z,79.64
2018-09-15T03:27:02.845Z,79.11
2018-09-15T03:29:31.404Z,79.63
2018-09-15T03:31:59.932Z,79.21
2018-09-15T03:34:28.445Z,79.51
2018-09-15T03:36:56.971Z,78.74
2018-09-15T03:39:25.497Z,79.27
2018-09-15T03:41:54.126Z,79.36
2018-09-15T03:44:22.585Z,79.86
2018-09-15T03:46:51.614Z,79.27
2018-09-15T03:49:20.105Z,79.52
2018-09-15T03:51:48.585Z,80.41
2018-09-15T03:54:19.800Z,80.68
2018-09-15T03:56:48.354Z,80.68
2018-09-15T03:59:17.546Z,81.03
2018-09-15T04:01:46.499Z,81.26
2018-09-15T04:04:14.969Z,81.83
2018-09-15T04:06:43.453Z,81.73
2018-09-15T04:09:12.348Z,81.56
2018-09-15T04:11:40.848Z,82.06
2018-09-15T04:14:09.609Z,81.91
2018-09-15T04:16:38.213Z,81.92
2018-09-15T04:19:06.705Z,81.78
2018-09-15T04:21:35.170Z,81.77
2018-09-15T04:24:03.690Z,81.93
2018-09-15T04:26:32.182Z,82.17
2018-09-15T04:29:00.982Z,81.92
2018-09-15T04:31:29.469Z,82.27
2018-09-15T04:33:57.972Z,82.45
2018-09-15T04:36:26.487Z,82.48
2018-09-15T04:38:54.998Z,83.14
2018-09-15T04:41:23.534Z,82.94
2018-09-15T04:43:52.038Z,83.29
2018-09-15T04:46:20.527Z,83.47
2018-09-15T04:48:49.011Z,82.78
2018-09-15T04:51:17.530Z,82.17
2018-09-15T04:53:46.031Z,82.51
2018-09-15T04:56:14.524Z,82.14
2018-09-15T04:58:43.116Z,82.49
2018-09-15T05:01:11.577Z,81.15
2018-09-15T05:03:40.138Z,81.52
2018-09-15T05:06:08.620Z,81.20
2018-09-15T05:08:37.139Z,81.10
2018-09-15T05:11:05.654Z,81.85
2018-09-15T05:13:34.238Z,81.46
2018-09-15T05:16:02.721Z,81.59
2018-09-15T05:18:31.186Z,81.06
2018-09-15T05:20:59.698Z,81.56
2018-09-15T05:23:28.202Z,81.50
2018-09-15T05:25:56.741Z,80.54
2018-09-15T05:28:25.235Z,81.42
2018-09-15T05:30:53.743Z,81.52
2018-09-15T05:33:22.273Z,80.89
2018-09-15T05:35:50.759Z,80.92
2018-09-15T05:38:19.250Z,81.67
2018-09-15T05:40:47.834Z,81.67
2018-09-15T05:43:16.423Z,81.25
2018-09-15T05:45:44.997Z,80.88
2018-09-15T05:48:13.565Z,80.89
2018-09-15T05:50:42.463Z,80.11
2018-09-15T05:53:10.951Z,80.56
2018-09-15T05:55:39.415Z,80.30
2018-09-15T05:58:07.943Z,80.82
2018-09-15T06:00:36.583Z,79.50
2018-09-15T06:03:05.057Z,79.34
2018-09-15T06:05:33.536Z,79.53
2018-09-15T06:08:02.039Z,79.62
2018-09-15T06:10:30.531Z,79.74
2018-09-15T06:12:59.077Z,79.62
2018-09-15T06:15:27.622Z,79.51
2018-09-15T06:17:56.077Z,79.17
2018-09-15T06:20:24.593Z,79.00
2018-09-15T06:22:53.132Z,78.60
2018-09-15T06:25:21.702Z,78.86
2018-09-15T06:27:50.253Z,78.89
2018-09-15T06:30:18.725Z,78.26
2018-09-15T06:32:47.214Z,77.42
2018-09-15T06:35:15.829Z,77.34
2018-09-15T06:37:44.342Z,76.97
2018-09-15T06:40:12.892Z,76.69
2018-09-15T06:42:41.383Z,76.67
2018-09-15T06:45:09.934Z,76.05
2018-09-15T06:47:38.410Z,75.84
2018-09-15T06:50:07.401Z,76.98
2018-09-15T06:52:35.881Z,77.12
2018-09-15T06:55:04.430Z,76.30
2018-09-15T06:57:32.928Z,77.07
2018-09-15T07:00:01.409Z,76.17
2018-09-15T07:02:29.901Z,75.84
2018-09-15T07:04:58.378Z,75.90
2018-09-15T07:07:26.890Z,74.96
2018-09-15T07:09:55.380Z,75.89
2018-09-15T07:12:23.877Z,75.79
2018-09-15T07:14:52.449Z,77.25
2018-09-15T07:17:21.049Z,77.16
2018-09-15T07:19:49.563Z,77.20
2018-09-15T07:22:18.045Z,76.89
2018-09-15T07:24:46.538Z,76.47
2018-09-15T07:27:15.117Z,76.89
2018-09-15T07:29:43.581Z,77.60
2018-09-15T07:32:12.115Z,77.59
2018-09-15T07:34:40.577Z,77.50
2018-09-15T07:37:09.181Z,77.51
2018-09-15T07:39:37.651Z,78.71
2018-09-15T07:42:06.133Z,78.30
2018-09-15T07:44:34.793Z,77.98
2018-09-15T07:47:03.288Z,78.61
2018-09-15T07:49:31.825Z,77.24
2018-09-15T07:52:00.322Z,77.52
2018-09-15T07:54:28.833Z,76.40
2018-09-15T07:56:57.357Z,75.77
2018-09-15T07:59:25.906Z,74.58
2018-09-15T08:01:54.424Z,74.18
2018-09-15T08:04:22.893Z,73.70
2018-09-15T08:06:51.449Z,73.14
2018-09-15T08:09:19.925Z,72.95
2018-09-15T08:11:48.393Z,72.74
2018-09-15T08:14:16.881Z,73.10
2018-09-15T08:16:45.373Z,72.28
2018-09-15T08:19:13.878Z,72.68
2018-09-15T08:21:42.485Z,71.79
2018-09-15T08:24:10.966Z,72.00
2018-09-15T08:26:39.437Z,71.79
2018-09-15T08:29:07.906Z,71.32
2018-09-15T08:31:36.505Z,70.22
2018-09-15T08:34:04.998Z,71.16
2018-09-15T08:36:33.503Z,71.06
2018-09-15T08:39:01.971Z,70.07
2018-09-15T08:41:30.437Z,67.72
2018-09-15T08:43:58.926Z,68.36
2018-09-15T08:46:27.426Z,66.52
2018-09-15T08:48:55.919Z,65.61
2018-09-15T08:51:24.421Z,66.28
2018-09-15T08:53:52.965Z,63.25
2018-09-15T08:56:21.485Z,64.13
2018-09-15T08:58:49.969Z,65.20
2018-09-15T09:01:18.445Z,65.50
2018-09-15T09:03:46.994Z,67.55
2018-09-15T09:06:15.455Z,69.52
2018-09-15T09:08:47.822Z,69.47
2018-09-15T09:11:16.373Z,67.55
2018-09-15T09:13:44.898Z,66.21
2018-09-15T09:16:13.467Z,65.67
2018-09-15T09:18:41.933Z,65.93
2018-09-15T09:21:10.456Z,66.16
2018-09-15T09:23:38.925Z,66.55
2018-09-15T09:26:07.482Z,64.77
2018-09-15T09:28:35.956Z,65.85
2018-09-15T09:31:04.681Z,65.47
2018-09-15T09:33:33.145Z,66.87
2018-09-15T09:36:01.651Z,64.85
2018-09-15T09:38:30.254Z,63.89
2018-09-15T09:40:58.746Z,61.49
2018-09-15T09:43:27.517Z,62.53
2018-09-15T09:45:55.973Z,62.48
2018-09-15T09:48:24.433Z,61.79
2018-09-15T09:50:52.975Z,59.59
2018-09-15T09:53:21.497Z,60.40
2018-09-15T09:55:49.999Z,58.95
2018-09-15T09:58:18.486Z,60.15
2018-09-15T10:00:52.534Z,59.56
2018-09-15T10:03:20.998Z,58.55
2018-09-15T10:05:49.625Z,57.11
2018-09-15T10:08:18.117Z,57.83
2018-09-15T10:10:46.594Z,55.16
2018-09-15T10:13:15.105Z,55.32
2018-09-15T10:15:43.605Z,56.93
2018-09-15T10:18:12.114Z,57.74
2018-09-15T10:20:40.592Z,58.49
2018-09-15T10:23:09.150Z,59.21
2018-09-15T10:25:37.641Z,61.28
2018-09-15T10:28:06.169Z,61.52
2018-09-15T10:30:34.739Z,60.81
2018-09-15T10:33:03.227Z,61.52
2018-09-15T10:35:31.705Z,61.12
2018-09-15T10:38:00.175Z,60.68
2018-09-15T10:40:28.769Z,60.26
2018-09-15T10:42:57.211Z,59.66
2018-09-15T10:45:25.678Z,58.67
2018-09-15T10:47:54.205Z,58.89
2018-09-15T10:50:22.656Z,59.55
2018-09-15T10:52:51.174Z,60.07
2018-09-15T10:55:19.666Z,60.34
2018-09-15T10:57:48.413Z,60.34
2018-09-15T11:00:16.914Z,59.79
2018-09-15T11:02:45.415Z,58.06
2018-09-15T11:05:13.958Z,56.32
2018-09-15T11:07:43.165Z,55.09
2018-09-15T11:10:11.709Z,54.42
2018-09-15T11:12:40.218Z,54.01
2018-09-15T11:15:08.714Z,53.57
2018-09-15T11:17:37.210Z,52.60
2018-09-15T11:20:05.802Z,50.50
2018-09-15T11:22:34.234Z,51.62
2018-09-15T11:25:02.719Z,52.38
2018-09-15T11:27:31.203Z,52.18
2018-09-15T11:29:59.672Z,52.15
2018-09-15T11:32:28.169Z,49.67
2018-09-15T11:34:56.665Z,49.17
2018-09-15T11:37:25.196Z,49.94
2018-09-15T11:39:53.677Z,49.57
2018-09-15T11:42:22.181Z,48.58
2018-09-15T11:44:50.717Z,47.45
2018-09-15T11:47:19.231Z,49.33
2018-09-15T11:49:47.750Z,50.26
2018-09-15T11:52:16.195Z,49.30
2018-09-15T11:54:44.761Z,48.63
2018-09-15T11:57:13.245Z,49.07
2018-09-15T11:59:41.702Z,51.00
2018-09-15T12:02:10.218Z,51.03
2018-09-15T12:04:38.835Z,51.22
2018-09-15T12:07:07.449Z,52.83
2018-09-15T12:09:36.212Z,53.26
2018-09-15T12:12:04.693Z,51.94
2018-09-15T12:14:33.190Z,51.64
2018-09-15T12:17:01.883Z,51.08
2018-09-15T12:19:30.366Z,51.79
2018-09-15T12:21:58.837Z,52.46
2018-09-15T12:24:27.304Z,52.06
2018-09-15T12:26:55.806Z,51.89
2018-09-15T12:29:24.307Z,51.44
2018-09-15T12:31:52.837Z,51.82
2018-09-15T12:34:21.302Z,53.93
2018-09-15T12:36:49.806Z,55.38
2018-09-15T12:39:18.428Z,55.50
2018-09-15T12:41:46.926Z,54.95
2018-09-15T12:44:15.421Z,55.98
2018-09-15T12:46:43.934Z,53.86
2018-09-15T12:49:12.427Z,54.53
2018-09-15T12:51:40.959Z,54.19
2018-09-15T12:54:09.417Z,53.26
2018-09-15T12:56:37.910Z,53.92
2018-09-15T12:59:06.551Z,54.97
2018-09-15T13:01:35.080Z,53.71
2018-09-15T13:04:03.606Z,52.19
2018-09-15T13:06:32.156Z,53.95
2018-09-15T13:09:00.588Z,54.67
2018-09-15T13:11:29.105Z,53.45
2018-09-15T13:13:57.606Z,52.23
2018-09-15T13:16:26.132Z,52.13
2018-09-15T13:18:54.698Z,50.65
2018-09-15T13:21:23.226Z,49.33
2018-09-15T13:23:51.764Z,48.06
2018-09-15T13:26:20.217Z,46.65
2018-09-15T13:28:48.685Z,44.74
2018-09-15T13:31:17.333Z,45.95
2018-09-15T13:33:45.844Z,46.63
2018-09-15T13:36:14.579Z,47.10
2018-09-15T13:38:43.088Z,45.89
2018-09-15T13:41:11.582Z,45.83
2018-09-15T13:43:40.382Z,44.72
2018-09-15T13:46:08.897Z,46.01
2018-09-15T13:48:37.373Z,47.64
2018-09-15T13:51:06.123Z,48.85
2018-09-15T13:53:34.606Z,50.09
2018-09-15T13:56:03.065Z,48.91
2018-09-15T13:58:31.572Z,49.77
2018-09-15T14:01:00.126Z,50.04
2018-09-15T14:03:28.569Z,48.84
2018-09-15T14:05:57.113Z,49.03
2018-09-15T14:08:25.676Z,49.62
2018-09-15T14:10:54.204Z,49.58
2018-09-15T14:13:22.694Z,49.29
2018-09-15T14:15:51.450Z,50.42
2018-09-15T14:18:19.930Z,50.81
2018-09-15T14:20:48.397Z,51.21
2018-09-15T14:23:16.866Z,51.33
2018-09-15T14:25:45.391Z,51.49
2018-09-15T14:28:13.946Z,52.38
2018-09-15T14:30:42.407Z,51.48
2018-09-15T14:33:10.953Z,51.99
2018-09-15T14:35:39.436Z,52.75
2018-09-15T14:38:08.029Z,50.57
2018-09-15T14:40:36.511Z,51.69
2018-09-15T14:43:05.111Z,53.29
2018-09-15T14:45:33.613Z,53.05
2018-09-15T14:48:02.308Z,53.36
2018-09-15T14:50:30.812Z,54.08
2018-09-15T14:52:59.333Z,54.04
2018-09-15T14:55:27.822Z,54.34
2018-09-15T14:57:56.321Z,54.35
2018-09-15T15:00:24.854Z,53.15
2018-09-15T15:02:56.801Z,51.41
2018-09-15T15:05:25.341Z,52.21
2018-09-15T15:07:54.441Z,52.25
2018-09-15T15:10:22.918Z,52.39
2018-09-15T15:12:51.658Z,52.33
2018-09-15T15:15:20.350Z,53.61
2018-09-15T15:17:48.821Z,54.10
2018-09-15T15:20:17.289Z,54.44
2018-09-15T15:22:45.802Z,53.52
2018-09-15T15:25:14.302Z,53.60
2018-09-15T15:27:42.813Z,53.65
2018-09-15T15:30:11.317Z,53.80
2018-09-15T15:32:39.792Z,54.99
2018-09-15T15:35:08.298Z,53.23
2018-09-15T15:37:36.808Z,53.73
2018-09-15T15:40:05.631Z,52.35
2018-09-15T15:42:34.153Z,52.52
2018-09-15T15:45:02.750Z,52.65
2018-09-15T15:47:31.310Z,51.87
2018-09-15T15:49:59.828Z,52.43
2018-09-15T15:52:28.393Z,51.91
2018-09-15T15:54:56.866Z,50.92
2018-09-15T15:57:25.478Z,50.74
2018-09-15T15:59:53.985Z,50.13
2018-09-15T16:02:22.470Z,50.50
2018-09-15T16:04:51.397Z,50.21
2018-09-15T16:07:19.967Z,51.39
2018-09-15T16:09:48.473Z,52.36
2018-09-15T16:12:16.964Z,53.21
2018-09-15T16:14:45.430Z,53.14
2018-09-15T16:17:13.943Z,53.93
2018-09-15T16:19:42.559Z,53.19
2018-09-15T16:22:10.986Z,54.67
2018-09-15T16:24:39.565Z,53.39
2018-09-15T16:27:08.078Z,55.49
2018-09-15T16:29:36.557Z,55.65
2018-09-15T16:32:05.105Z,54.69
2018-09-15T16:34:33.593Z,54.28
2018-09-15T16:37:02.055Z,54.98
2018-09-15T16:39:30.570Z,56.12
2018-09-15T16:41:59.053Z,56.37
2018-09-15T16:44:27.631Z,56.41
2018-09-15T16:46:56.129Z,56.53
2018-09-15T16:49:24.713Z,56.77
2018-09-15T16:51:53.191Z,57.25
2018-09-15T16:54:21.768Z,58.00
2018-09-15T16:56:50.310Z,58.02
2018-09-15T16:59:18.849Z,58.20
2018-09-15T17:01:47.378Z,57.55
2018-09-15T17:04:15.898Z,57.85
2018-09-15T17:06:44.409Z,57.82
2018-09-15T17:09:13.198Z,57.31
2018-09-15T17:11:41.786Z,57.37
2018-09-15T17:14:10.299Z,57.30
2018-09-15T17:16:38.918Z,58.32
2018-09-15T17:19:07.440Z,58.31
2018-09-15T17:21:35.954Z,58.66
2018-09-15T17:24:04.475Z,59.24
2018-09-15T17:26:33.098Z,59.46
2018-09-15T17:29:01.611Z,60.34
2018-09-15T17:31:30.109Z,60.85
2018-09-15T17:33:58.729Z,62.09
2018-09-15T17:36:27.317Z,63.22
2018-09-15T17:38:55.874Z,62.68
2018-09-15T17:41:24.833Z,63.29
2018-09-15T17:43:53.286Z,64.19
2018-09-15T17:46:21.819Z,64.04
2018-09-15T17:48:50.290Z,64.33
2018-09-15T17:51:18.825Z,65.57
2018-09-15T17:53:47.358Z,64.52
2018-09-15T17:56:15.838Z,64.61
2018-09-15T17:58:44.346Z,64.91
2018-09-15T18:01:12.849Z,65.60
2018-09-15T18:03:41.592Z,66.27
2018-09-15T18:06:09.943Z,66.36
2018-09-15T18:08:38.441Z,67.10
2018-09-15T18:11:07.327Z,67.00
2018-09-15T18:13:35.813Z,67.62
2018-09-15T18:16:10.836Z,67.44
2018-09-15T18:18:39.309Z,68.07
2018-09-15T18:21:07.805Z,68.62
2018-09-15T18:23:36.344Z,68.02
2018-09-15T18:26:06.196Z,68.12
2018-09-15T18:28:34.728Z,68.50
2018-09-15T18:31:03.173Z,69.03
2018-09-15T18:33:31.669Z,69.53
2018-09-15T18:36:00.287Z,68.83
2018-09-15T18:38:28.888Z,69.18
2018-09-15T18:40:57.466Z,69.78
2018-09-15T18:43:26.107Z,69.64
2018-09-15T18:45:54.658Z,69.55
2018-09-15T18:48:23.191Z,69.80
2018-09-15T18:50:51.765Z,69.62
2018-09-15T18:53:20.235Z,69.30
2018-09-15T18:55:48.709Z,70.16
2018-09-15T18:58:17.263Z,70.32
2018-09-15T19:00:45.735Z,70.69
2018-09-15T19:03:15.498Z,70.63
2018-09-15T19:05:45.063Z,70.62
2018-09-15T19:08:13.919Z,70.31
2018-09-15T19:10:42.654Z,71.25
2018-09-15T19:13:11.736Z,71.04
2018-09-15T19:15:40.189Z,71.58
2018-09-15T19:18:08.685Z,73.17
2018-09-15T19:20:37.282Z,72.24
2018-09-15T19:23:05.772Z,72.28
2018-09-15T19:25:34.382Z,72.33
2018-09-15T19:28:02.906Z,72.60
2018-09-15T19:30:31.492Z,72.92
2018-09-15T19:33:00.001Z,73.44
2018-09-15T19:35:28.513Z,73.74
2018-09-15T19:37:56.957Z,74.32
2018-09-15T19:40:25.442Z,74.60
2018-09-15T19:42:54.198Z,74.02
2018-09-15T19:45:22.673Z,73.65
2018-09-15T19:47:51.246Z,73.23
2018-09-15T19:50:19.733Z,73.58
2018-09-15T19:52:48.354Z,73.45
2018-09-15T19:55:16.971Z,73.48
2018-09-15T19:57:45.569Z,73.84
2018-09-15T20:00:14.054Z,73.81
2018-09-15T20:02:42.575Z,74.00
2018-09-15T20:05:11.166Z,74.45
2018-09-15T20:07:39.685Z,74.76
2018-09-15T20:10:08.152Z,74.60
2018-09-15T20:12:36.641Z,75.03
2018-09-15T20:15:05.450Z,75.92
2018-09-15T20:17:32.707Z,75.93
2018-09-15T20:19:59.993Z,76.04
2018-09-15T20:22:28.569Z,75.83
2018-09-15T20:24:57.264Z,76.19
2018-09-15T20:27:25.852Z,75.28
2018-09-15T20:29:54.361Z,76.26
2018-09-15T20:32:22.946Z,75.43
2018-09-15T20:34:51.524Z,76.09
2018-09-15T20:37:20.057Z,76.66
2018-09-15T20:39:48.518Z,76.33
2018-09-15T20:42:17.059Z,76.52
2018-09-15T20:44:45.579Z,76.66
2018-09-15T20:47:14.099Z,76.31
2018-09-15T20:49:42.670Z,77.67
2018-09-15T20:52:11.195Z,77.49
2018-09-15T20:54:39.654Z,78.24
2018-09-15T20:57:08.180Z,78.60
2018-09-15T20:59:36.680Z,78.62
2018-09-15T21:02:05.235Z,78.26
2018-09-15T21:04:33.723Z,77.48
2018-09-15T21:07:02.271Z,77.67
2018-09-15T21:09:30.750Z,77.65
2018-09-15T21:11:59.264Z,76.91
2018-09-15T21:14:28.186Z,77.27
2018-09-15T21:16:56.818Z,77.35
2018-09-15T21:19:25.309Z,77.95
2018-09-15T21:21:54.013Z,77.84
2018-09-15T21:24:22.510Z,77.58
2018-09-15T21:26:51.165Z,77.69
2018-09-15T21:29:19.696Z,78.29
2018-09-15T21:31:48.295Z,78.37
2018-09-15T21:34:16.849Z,78.31
2018-09-15T21:36:45.321Z,78.82
2018-09-15T21:39:14.118Z,79.38
2018-09-15T21:41:42.969Z,80.06
2018-09-15T21:44:11.542Z,79.38
2018-09-15T21:46:40.276Z,78.85
2018-09-15T21:49:08.827Z,78.79
2018-09-15T21:51:37.313Z,78.62
2018-09-15T21:54:05.869Z,78.14
2018-09-15T21:56:34.376Z,78.43
2018-09-15T21:59:03.113Z,78.36
2018-09-15T22:01:31.574Z,78.54
2018-09-15T22:04:05.287Z,78.68
2018-09-15T22:06:33.818Z,78.13
2018-09-15T22:09:02.369Z,77.75
2018-09-15T22:11:30.965Z,78.50
2018-09-15T22:13:59.488Z,78.37
2018-09-15T22:16:27.976Z,78.50
2018-09-15T22:18:56.446Z,78.62
2018-09-15T22:21:24.993Z,78.34
2018-09-15T22:23:53.534Z,78.75
2018-09-15T22:26:22.027Z,78.97
2018-09-15T22:28:50.510Z,78.85
2018-09-15T22:31:19.019Z,79.70
2018-09-15T22:33:47.560Z,79.93
2018-09-15T22:36:16.069Z,79.29
2018-09-15T22:38:44.537Z,79.00
2018-09-15T22:41:13.050Z,78.46
2018-09-15T22:43:41.495Z,78.70
2018-09-15T22:46:09.920Z,78.91
2018-09-15T22:48:38.440Z,79.16
2018-09-15T22:51:07.225Z,79.77
2018-09-15T22:53:35.698Z,79.79
2018-09-15T22:56:04.221Z,79.24
2018-09-15T22:58:32.738Z,78.55
2018-09-15T23:01:01.241Z,78.94
2018-09-15T23:03:29.733Z,78.23
2018-09-15T23:05:58.233Z,78.33
2018-09-15T23:08:26.695Z,78.12
2018-09-15T23:10:55.289Z,78.46
2018-09-15T23:13:23.784Z,78.72
2018-09-15T23:15:52.259Z,78.45
2018-09-15T23:18:21.030Z,78.84
2018-09-15T23:20:49.482Z,78.58
2018-09-15T23:23:17.949Z,79.56
2018-09-15T23:25:46.454Z,79.14
2018-09-15T23:28:14.901Z,79.22
2018-09-15T23:30:43.392Z,79.72
2018-09-15T23:33:11.877Z,79.54
2018-09-15T23:35:40.414Z,79.57
2018-09-15T23:38:08.874Z,79.67
2018-09-15T23:40:37.372Z,79.82
2018-09-15T23:43:05.890Z,80.29
2018-09-15T23:45:34.369Z,80.00
2018-09-15T23:48:02.898Z,79.78
2018-09-15T23:50:31.367Z,79.86
2018-09-15T23:52:59.841Z,79.97
2018-09-15T23:55:28.342Z,80.12
2018-09-15T23:57:56.870Z,79.90
